createdAt,value
2023-01-21T00:01:13.060Z,100690.46
2023-01-21T00:03:40.618Z,100691.34
2023-01-21T00:06:07.953Z,100689.64
2023-01-21T00:08:34.968Z,100689.51
2023-01-21T00:11:09.600Z,100683.62
2023-01-21T00:13:36.600Z,100681.04
2023-01-21T00:16:04.650Z,100678.42
2023-01-21T00:18:31.737Z,100680.71
2023-01-21T00:20:58.744Z,100685.27
2023-01-21T00:23:25.858Z,100681.80
2023-01-21T00:26:00.536Z,100678.78
2023-01-21T00:28:29.195Z,100684.27
2023-01-21T00:31:00.325Z,100682.09
2023-01-21T00:33:28.376Z,100678.35
2023-01-21T00:36:04.041Z,100673.50
2023-01-21T00:38:31.595Z,100669.36
2023-01-21T00:41:07.676Z,100668.52
2023-01-21T00:43:35.151Z,100671.15
2023-01-21T00:46:03.059Z,100673.30
2023-01-21T00:48:29.702Z,100667.08
2023-01-21T00:51:00.140Z,100657.55
2023-01-21T00:53:28.608Z,100652.14
2023-01-21T00:55:59.835Z,100659.84
2023-01-21T00:58:27.145Z,100656.73
2023-01-21T01:01:05.077Z,100645.63
2023-01-21T01:03:32.697Z,100636.60
2023-01-21T01:06:08.871Z,100636.46
2023-01-21T01:08:35.682Z,100617.67
2023-01-21T01:11:03.349Z,100627.03
2023-01-21T01:13:31.016Z,100619.38
2023-01-21T01:15:58.406Z,100635.52
2023-01-21T01:18:27.463Z,100646.86
2023-01-21T01:20:54.501Z,100645.95
2023-01-21T01:23:21.583Z,100644.54
2023-01-21T01:26:05.486Z,100638.61
2023-01-21T01:28:33.598Z,100632.02
2023-01-21T01:31:03.245Z,100625.77
2023-01-21T01:33:30.004Z,100622.19
2023-01-21T01:36:05.916Z,100612.87
2023-01-21T01:38:34.323Z,100610.70
2023-01-21T01:41:01.498Z,100606.98
2023-01-21T01:43:49.632Z,100601.83
2023-01-21T01:46:16.672Z,100599.97
2023-01-21T01:48:49.428Z,100595.55
2023-01-21T01:51:21.353Z,100597.55
2023-01-21T01:53:48.956Z,100596.79
2023-01-21T01:56:15.877Z,100586.60
2023-01-21T01:58:44.818Z,100586.67
2023-01-21T02:01:12.067Z,100590.40
2023-01-21T02:03:43.750Z,100576.21
2023-01-21T02:06:16.096Z,100571.05
2023-01-21T02:08:46.254Z,100567.13
2023-01-21T02:11:15.107Z,100563.33
2023-01-21T02:13:45.313Z,100560.23
2023-01-21T02:16:17.737Z,100555.91
2023-01-21T02:19:20.011Z,100554.00
2023-01-21T02:21:57.649Z,100549.52
2023-01-21T02:25:02.445Z,100548.17
2023-01-21T02:27:41.997Z,100548.89
2023-01-21T02:30:46.149Z,100549.61
2023-01-21T02:33:25.594Z,100543.34
2023-01-21T02:36:19.174Z,100542.30
2023-01-21T02:38:46.966Z,100533.48
2023-01-21T02:41:19.665Z,100531.45
2023-01-21T02:44:20.972Z,100528.46
2023-01-21T02:47:28.683Z,100529.36
2023-01-21T02:50:05.345Z,100524.17
2023-01-21T02:52:32.343Z,100525.95
2023-01-21T02:55:01.144Z,100525.61
2023-01-21T02:57:52.253Z,100523.20
2023-01-21T03:00:45.723Z,100524.80
2023-01-21T03:03:22.723Z,100520.13
2023-01-21T03:06:38.495Z,100518.91
2023-01-21T03:09:18.369Z,100511.48
2023-01-21T03:12:00.386Z,100508.75
2023-01-21T03:15:10.225Z,100515.70
2023-01-21T03:18:03.143Z,100508.27
2023-01-21T03:20:45.199Z,100503.91
2023-01-21T03:23:20.890Z,100504.83
2023-01-21T03:25:49.934Z,100503.61
2023-01-21T03:28:21.639Z,100497.18
2023-01-21T03:30:58.746Z,100497.91
2023-01-21T03:33:28.129Z,100494.61
2023-01-21T03:35:57.403Z,100483.98
2023-01-21T03:38:31.017Z,100481.53
2023-01-21T03:41:07.208Z,100472.89
2023-01-21T03:43:34.470Z,100458.98
2023-01-21T03:46:24.435Z,100453.63
2023-01-21T03:49:23.592Z,100443.05
2023-01-21T03:51:55.105Z,100426.75
2023-01-21T03:54:22.567Z,100420.69
2023-01-21T03:56:49.680Z,100421.44
2023-01-21T03:59:16.525Z,100425.09
2023-01-21T04:01:43.238Z,100425.45
2023-01-21T04:04:10.066Z,100434.74
2023-01-21T04:06:36.779Z,100434.77
2023-01-21T04:09:04.656Z,100425.54
2023-01-21T04:11:31.724Z,100425.89
2023-01-21T04:13:58.595Z,100398.60
2023-01-21T04:16:25.496Z,100414.75
2023-01-21T04:18:52.487Z,100406.48
2023-01-21T04:21:19.754Z,100412.16
2023-01-21T04:23:46.770Z,100417.79
2023-01-21T04:26:13.608Z,100417.06
2023-01-21T04:28:41.489Z,100431.55
2023-01-21T04:31:08.599Z,100432.30
2023-01-21T04:33:35.576Z,100440.98
2023-01-21T04:36:02.339Z,100444.64
2023-01-21T04:38:28.921Z,100454.70
2023-01-21T04:40:55.964Z,100452.06
2023-01-21T04:43:23.274Z,100454.48
2023-01-21T04:45:49.976Z,100451.00
2023-01-21T04:48:17.418Z,100452.56
2023-01-21T04:50:46.044Z,100445.94
2023-01-21T04:53:12.604Z,100445.09
2023-01-21T04:55:39.739Z,100446.32
2023-01-21T04:58:06.555Z,100449.60
2023-01-21T05:00:33.292Z,100447.99
2023-01-21T05:03:00.026Z,100447.31
2023-01-21T05:05:26.873Z,100443.31
2023-01-21T05:07:54.373Z,100441.51
2023-01-21T05:10:21.574Z,100447.66
2023-01-21T05:12:48.597Z,100445.96
2023-01-21T05:15:15.353Z,100443.95
2023-01-21T05:17:42.480Z,100443.57
2023-01-21T05:20:11.526Z,100441.52
2023-01-21T05:22:38.963Z,100442.54
2023-01-21T05:25:06.006Z,100444.27
2023-01-21T05:27:32.965Z,100443.20
2023-01-21T05:29:59.526Z,100438.66
2023-01-21T05:32:26.401Z,100440.20
2023-01-21T05:34:52.949Z,100444.50
2023-01-21T05:37:19.576Z,100445.02
2023-01-21T05:39:46.614Z,100440.84
2023-01-21T05:42:13.272Z,100439.80
2023-01-21T05:44:39.839Z,100438.73
2023-01-21T05:47:08.264Z,100441.15
2023-01-21T05:49:35.082Z,100446.52
2023-01-21T05:52:01.564Z,100446.65
2023-01-21T05:54:28.298Z,100441.48
2023-01-21T05:56:55.332Z,100428.03
2023-01-21T05:59:21.868Z,100440.77
2023-01-21T06:01:48.736Z,100444.58
2023-01-21T06:04:15.424Z,100448.23
2023-01-21T06:06:42.132Z,100449.25
2023-01-21T06:09:09.280Z,100446.14
2023-01-21T06:11:36.093Z,100444.76
2023-01-21T06:14:02.723Z,100443.88
2023-01-21T06:16:29.532Z,100452.39
2023-01-21T06:18:56.210Z,100454.32
2023-01-21T06:21:22.828Z,100453.62
2023-01-21T06:23:49.588Z,100450.31
2023-01-21T06:26:16.744Z,100449.10
2023-01-21T06:28:43.293Z,100449.79
2023-01-21T06:31:10.300Z,100448.41
2023-01-21T06:33:37.140Z,100444.92
2023-01-21T06:36:04.149Z,100445.95
2023-01-21T06:38:31.406Z,100443.86
2023-01-21T06:40:58.219Z,100445.45
2023-01-21T06:43:24.813Z,100445.23
2023-01-21T06:45:51.884Z,100448.35
2023-01-21T06:48:20.055Z,100449.73
2023-01-21T06:50:46.816Z,100449.02
2023-01-21T06:53:13.817Z,100451.48
2023-01-21T06:55:40.720Z,100451.83
2023-01-21T06:58:07.414Z,100451.16
2023-01-21T07:00:34.184Z,100448.89
2023-01-21T07:03:01.432Z,100445.79
2023-01-21T07:05:28.075Z,100447.34
2023-01-21T07:07:56.600Z,100448.23
2023-01-21T07:10:24.444Z,100449.77
2023-01-21T07:12:51.604Z,100444.52
2023-01-21T07:15:18.760Z,100444.14
2023-01-21T07:17:46.130Z,100449.68
2023-01-21T07:20:13.067Z,100444.23
2023-01-21T07:22:40.024Z,100458.08
2023-01-21T07:25:07.889Z,100463.98
2023-01-21T07:27:34.410Z,100460.52
2023-01-21T07:30:01.305Z,100454.60
2023-01-21T07:32:28.176Z,100458.38
2023-01-21T07:34:54.792Z,100449.55
2023-01-21T07:37:21.588Z,100450.20
2023-01-21T07:39:48.649Z,100433.98
2023-01-21T07:42:15.185Z,100444.28
2023-01-21T07:44:42.884Z,100445.52
2023-01-21T07:47:09.969Z,100448.63
2023-01-21T07:49:37.037Z,100447.11
2023-01-21T07:52:03.840Z,100447.64
2023-01-21T07:54:30.884Z,100445.41
2023-01-21T07:56:57.953Z,100440.00
2023-01-21T07:59:24.856Z,100442.27
2023-01-21T08:01:52.389Z,100442.09
2023-01-21T08:04:19.399Z,100442.94
2023-01-21T08:06:46.287Z,100445.89
2023-01-21T08:09:13.298Z,100444.30
2023-01-21T08:11:39.993Z,100434.20
2023-01-21T08:14:10.492Z,100439.85
2023-01-21T08:16:38.180Z,100440.88
2023-01-21T08:19:04.950Z,100442.92
2023-01-21T08:21:32.058Z,100445.17
2023-01-21T08:23:59.469Z,100441.33
2023-01-21T08:26:26.325Z,100445.80
2023-01-21T08:28:54.663Z,100447.37
2023-01-21T08:31:21.808Z,100448.94
2023-01-21T08:33:48.650Z,100457.27
2023-01-21T08:36:16.474Z,100457.25
2023-01-21T08:38:43.636Z,100440.44
2023-01-21T08:41:10.438Z,100465.05
2023-01-21T08:43:37.756Z,100465.72
2023-01-21T08:46:05.067Z,100462.70
2023-01-21T08:48:31.747Z,100468.55
2023-01-21T08:50:59.979Z,100474.06
2023-01-21T08:53:29.507Z,100470.56
2023-01-21T08:56:00.909Z,100469.85
2023-01-21T08:58:28.911Z,100472.59
2023-01-21T09:00:56.553Z,100473.10
2023-01-21T09:03:24.013Z,100463.73
2023-01-21T09:05:51.181Z,100472.55
2023-01-21T09:08:18.692Z,100474.11
2023-01-21T09:11:01.009Z,100472.89
2023-01-21T09:13:30.432Z,100477.60
2023-01-21T09:15:58.157Z,100476.02
2023-01-21T09:18:25.379Z,100467.98
2023-01-21T09:20:52.458Z,100484.35
2023-01-21T09:23:25.892Z,100485.87
2023-01-21T09:26:05.411Z,100482.00
2023-01-21T09:28:34.537Z,100484.89
2023-01-21T09:31:04.578Z,100485.36
2023-01-21T09:33:32.654Z,100490.73
2023-01-21T09:36:01.672Z,100490.59
2023-01-21T09:38:29.087Z,100489.22
2023-01-21T09:41:04.130Z,100490.59
2023-01-21T09:43:41.257Z,100493.05
2023-01-21T09:46:17.437Z,100492.88
2023-01-21T09:48:48.705Z,100492.34
2023-01-21T09:51:22.127Z,100489.29
2023-01-21T09:57:04.739Z,100495.30
2023-01-21T09:59:59.957Z,100492.48
2023-01-21T10:02:41.474Z,100493.69
2023-01-21T10:05:23.465Z,100494.89
2023-01-21T10:08:24.601Z,100495.35
2023-01-21T10:11:06.986Z,100496.92
2023-01-21T10:13:42.891Z,100501.61
2023-01-21T10:16:18.718Z,100501.08
2023-01-21T10:18:50.371Z,100501.21
2023-01-21T10:21:32.433Z,100502.59
2023-01-21T10:24:26.232Z,100505.86
2023-01-21T10:26:53.824Z,100502.56
2023-01-21T10:29:23.725Z,100506.21
2023-01-21T10:31:59.726Z,100507.98
2023-01-21T10:34:31.336Z,100495.73
2023-01-21T10:37:21.833Z,100506.05
2023-01-21T10:40:09.225Z,100509.61
2023-01-21T10:42:43.091Z,100509.77
2023-01-21T10:45:22.265Z,100514.79
2023-01-21T10:48:04.921Z,100511.77
2023-01-21T10:50:47.456Z,100519.39
2023-01-21T10:53:40.460Z,100520.91
2023-01-21T10:56:22.659Z,100527.33
2023-01-21T10:58:58.605Z,100526.58
2023-01-21T11:01:29.959Z,100529.96
2023-01-21T11:04:06.681Z,100529.56
2023-01-21T11:06:34.705Z,100533.70
2023-01-21T11:09:12.969Z,100538.64
2023-01-21T11:11:42.494Z,100513.01
2023-01-21T11:14:10.045Z,100541.38
2023-01-21T11:16:46.382Z,100542.35
2023-01-21T11:19:24.321Z,100541.25
2023-01-21T11:22:03.847Z,100531.89
2023-01-21T11:24:45.193Z,100546.20
2023-01-21T11:27:33.259Z,100533.17
2023-01-21T11:30:00.644Z,100543.09
2023-01-21T11:32:55.529Z,100544.30
2023-01-21T11:35:23.840Z,100545.98
2023-01-21T11:37:50.530Z,100548.57
2023-01-21T11:40:25.723Z,100553.73
2023-01-21T11:42:55.627Z,100553.22
2023-01-21T11:46:10.631Z,100553.92
2023-01-21T11:48:43.484Z,100558.65
2023-01-21T11:51:11.199Z,100564.92
2023-01-21T11:53:38.449Z,100570.52
2023-01-21T11:56:06.645Z,100575.59
2023-01-21T11:58:36.178Z,100579.58
2023-01-21T12:01:07.530Z,100554.77
2023-01-21T12:03:40.846Z,100585.67
2023-01-21T12:06:07.742Z,100586.77
2023-01-21T12:08:37.468Z,100595.05
2023-01-21T12:11:06.792Z,100598.52
2023-01-21T12:14:06.658Z,100600.98
2023-01-21T12:16:53.500Z,100597.64
2023-01-21T12:19:33.164Z,100600.58
2023-01-21T12:22:11.678Z,100603.17
2023-01-21T12:25:02.944Z,100607.82
2023-01-21T12:27:49.991Z,100608.48
2023-01-21T12:30:29.141Z,100613.11
2023-01-21T12:33:02.219Z,100611.02
2023-01-21T12:35:33.126Z,100615.50
2023-01-21T12:38:18.731Z,100621.36
2023-01-21T12:41:12.564Z,100623.24
2023-01-21T12:43:47.121Z,100628.21
2023-01-21T12:46:23.443Z,100634.25
2023-01-21T12:49:02.266Z,100639.08
2023-01-21T12:51:34.136Z,100640.40
2023-01-21T12:54:28.891Z,100643.30
2023-01-21T12:57:13.259Z,100622.89
2023-01-21T12:59:48.106Z,100649.48
2023-01-21T13:02:20.485Z,100652.04
2023-01-21T13:04:56.526Z,100657.93
2023-01-21T13:07:32.182Z,100657.02
2023-01-21T13:10:20.649Z,100665.67
2023-01-21T13:12:55.504Z,100673.97
2023-01-21T13:15:32.043Z,100677.27
2023-01-21T13:18:07.121Z,100683.16
2023-01-21T13:20:39.711Z,100687.14
2023-01-21T13:23:29.429Z,100684.55
2023-01-21T13:26:06.532Z,100697.86
2023-01-21T13:28:45.493Z,100700.30
2023-01-21T13:31:54.636Z,100700.23
2023-01-21T13:34:48.372Z,100703.89
2023-01-21T13:37:48.399Z,100705.64
2023-01-21T13:40:51.848Z,100707.88
2023-01-21T13:43:21.750Z,100709.24
2023-01-21T13:46:20.963Z,100716.00
2023-01-21T13:49:07.915Z,100718.92
2023-01-21T13:51:44.491Z,100725.48
2023-01-21T13:54:11.248Z,100729.14
2023-01-21T13:57:02.925Z,100731.73
2023-01-21T13:59:56.972Z,100737.11
2023-01-21T14:02:59.453Z,100743.54
2023-01-21T14:05:58.334Z,100750.86
2023-01-21T14:08:40.170Z,100756.92
2023-01-21T14:12:08.237Z,100759.01
2023-01-21T14:15:05.036Z,100763.05
2023-01-21T14:18:08.226Z,100763.19
2023-01-21T14:21:01.408Z,100771.35
2023-01-21T14:24:02.271Z,100773.75
2023-01-21T14:26:39.067Z,100775.14
2023-01-21T14:29:22.915Z,100781.04
2023-01-21T14:32:29.163Z,100783.83
2023-01-21T14:35:24.037Z,100789.92
2023-01-21T14:38:23.151Z,100792.17
2023-01-21T14:41:02.302Z,100798.40
2023-01-21T14:43:31.997Z,100799.75
2023-01-21T14:46:00.317Z,100806.53
2023-01-21T14:48:32.091Z,100807.02
2023-01-21T14:51:07.857Z,100811.53
2023-01-21T14:53:43.761Z,100819.18
2023-01-21T14:56:32.500Z,100825.09
2023-01-21T14:59:05.959Z,100830.13
2023-01-21T15:01:38.474Z,100836.70
2023-01-21T15:04:27.390Z,100838.08
2023-01-21T15:07:00.593Z,100850.23
2023-01-21T15:09:35.077Z,100853.55
2023-01-21T15:12:05.467Z,100862.04
2023-01-21T15:14:37.649Z,100866.17
2023-01-21T15:17:04.886Z,100871.73
2023-01-21T15:19:35.648Z,100877.11
2023-01-21T15:22:16.844Z,100882.16
2023-01-21T15:25:18.800Z,100883.54
2023-01-21T15:28:23.353Z,100887.67
2023-01-21T15:31:02.645Z,100892.72
2023-01-21T15:33:30.177Z,100895.65
2023-01-21T15:35:59.744Z,100896.50
2023-01-21T15:38:27.867Z,100898.20
2023-01-21T15:41:02.197Z,100899.41
2023-01-21T15:43:54.508Z,100903.06
2023-01-21T15:47:07.175Z,100903.73
2023-01-21T15:50:23.349Z,100907.44
2023-01-21T15:52:53.218Z,100913.67
2023-01-21T15:55:20.075Z,100915.05
2023-01-21T15:58:22.616Z,100917.48
2023-01-21T16:01:05.503Z,100921.30
2023-01-21T16:03:38.101Z,100925.83
2023-01-21T16:06:28.743Z,100929.09
2023-01-21T16:09:06.391Z,100935.89
2023-01-21T16:11:51.580Z,100943.56
2023-01-21T16:14:36.664Z,100950.34
2023-01-21T16:17:21.196Z,100954.85
2023-01-21T16:19:51.720Z,100958.52
2023-01-21T16:22:24.953Z,100966.02
2023-01-21T16:24:58.916Z,100966.53
2023-01-21T16:27:30.305Z,100973.16
2023-01-21T16:30:05.129Z,100982.00
2023-01-21T16:32:33.018Z,100981.30
2023-01-21T16:35:00.366Z,100988.77
2023-01-21T16:37:29.198Z,100992.45
2023-01-21T16:40:28.858Z,101000.10
2023-01-21T16:43:26.337Z,101000.96
2023-01-21T16:46:02.589Z,101006.69
2023-01-21T16:48:33.619Z,101011.41
2023-01-21T16:51:01.116Z,101013.13
2023-01-21T16:53:28.241Z,101020.63
2023-01-21T16:55:56.836Z,101026.88
2023-01-21T16:58:32.456Z,101028.09
2023-01-21T17:01:15.512Z,101031.72
2023-01-21T17:03:43.422Z,101036.23
2023-01-21T17:06:30.422Z,101041.64
2023-01-21T17:09:06.848Z,101045.61
2023-01-21T17:11:36.155Z,101049.26
2023-01-21T17:14:09.474Z,101048.91
2023-01-21T17:16:39.169Z,101053.95
2023-01-21T17:19:17.756Z,101054.64
2023-01-21T17:21:49.320Z,101055.48
2023-01-21T17:24:20.303Z,101059.31
2023-01-21T17:26:50.130Z,101065.20
2023-01-21T17:29:26.187Z,101063.47
2023-01-21T17:32:02.168Z,101069.89
2023-01-21T17:34:34.463Z,101078.62
2023-01-21T17:37:02.136Z,101084.36
2023-01-21T17:39:50.325Z,101092.71
2023-01-21T17:42:20.322Z,101095.48
2023-01-21T17:44:48.636Z,101099.31
2023-01-21T17:47:26.716Z,101104.20
2023-01-21T17:50:02.928Z,101112.08
2023-01-21T17:52:30.212Z,101113.42
2023-01-21T17:55:25.539Z,101115.34
2023-01-21T17:57:53.796Z,101122.13
2023-01-21T18:00:44.555Z,101127.17
2023-01-21T18:03:11.770Z,101125.13
2023-01-21T18:05:40.356Z,101134.34
2023-01-21T18:08:14.930Z,101140.42
2023-01-21T18:10:43.118Z,101144.40
2023-01-21T18:13:14.401Z,101145.98
2023-01-21T18:15:46.071Z,101151.54
2023-01-21T18:18:26.581Z,101154.13
2023-01-21T18:20:53.667Z,101133.20
2023-01-21T18:23:20.857Z,101164.23
2023-01-21T18:25:53.071Z,101172.27
2023-01-21T18:28:25.689Z,101174.88
2023-01-21T18:30:56.907Z,101176.27
2023-01-21T18:33:24.643Z,101179.56
2023-01-21T18:35:52.634Z,101178.17
2023-01-21T18:38:26.481Z,101183.88
2023-01-21T18:40:56.725Z,101184.56
2023-01-21T18:43:26.669Z,101189.27
2023-01-21T18:45:54.592Z,101190.34
2023-01-21T18:48:27.521Z,101191.36
2023-01-21T18:50:55.127Z,101193.80
2023-01-21T18:53:26.853Z,101193.99
2023-01-21T18:55:55.051Z,101198.73
2023-01-21T18:58:24.426Z,101199.83
2023-01-21T19:00:51.447Z,101200.88
2023-01-21T19:03:18.465Z,101204.02
2023-01-21T19:05:49.605Z,101207.67
2023-01-21T19:08:19.242Z,101209.95
2023-01-21T19:10:46.257Z,101212.55
2023-01-21T19:13:13.420Z,101208.13
2023-01-21T19:15:41.559Z,101218.69
2023-01-21T19:18:13.614Z,101223.03
2023-01-21T19:20:41.997Z,101225.50
2023-01-21T19:23:15.747Z,101222.73
2023-01-21T19:25:55.094Z,101227.42
2023-01-21T19:28:23.316Z,101234.20
2023-01-21T19:30:54.703Z,101245.16
2023-01-21T19:33:22.347Z,101248.14
2023-01-21T19:35:50.360Z,101248.64
2023-01-21T19:38:20.025Z,101249.87
2023-01-21T19:40:47.075Z,101255.61
2023-01-21T19:43:20.108Z,101256.83
2023-01-21T19:45:47.773Z,101261.35
2023-01-21T19:48:16.999Z,101267.63
2023-01-21T19:50:44.603Z,101270.59
2023-01-21T19:53:15.154Z,101277.05
2023-01-21T19:55:43.650Z,101278.80
2023-01-21T19:58:19.928Z,101288.06
2023-01-21T20:00:49.700Z,101293.64
2023-01-21T20:03:18.127Z,101291.02
2023-01-21T20:05:47.195Z,101294.67
2023-01-21T20:08:21.331Z,101299.39
2023-01-21T20:10:49.307Z,101305.14
2023-01-21T20:13:18.908Z,101314.02
2023-01-21T20:15:47.834Z,101312.27
2023-01-21T20:18:17.639Z,101316.95
2023-01-21T20:20:44.792Z,101320.45
2023-01-21T20:23:16.225Z,101325.67
2023-01-21T20:25:45.358Z,101326.39
2023-01-21T20:28:16.291Z,101329.14
2023-01-21T20:30:42.974Z,101332.80
2023-01-21T20:33:10.829Z,101333.48
2023-01-21T20:35:37.661Z,101336.80
2023-01-21T20:38:09.811Z,101342.92
2023-01-21T20:40:36.631Z,101344.33
2023-01-21T20:43:03.753Z,101349.75
2023-01-21T20:45:35.635Z,101350.48
2023-01-21T20:48:03.950Z,101357.81
2023-01-21T20:50:34.745Z,101360.25
2023-01-21T20:53:03.033Z,101351.94
2023-01-21T20:55:30.346Z,101366.52
2023-01-21T20:57:57.390Z,101371.38
2023-01-21T21:00:31.691Z,101358.60
2023-01-21T21:02:58.751Z,101377.52
2023-01-21T21:05:27.653Z,101382.92
2023-01-21T21:07:55.101Z,101383.63
2023-01-21T21:10:30.737Z,101390.24
2023-01-21T21:12:58.459Z,101391.11
2023-01-21T21:15:30.628Z,101390.93
2023-01-21T21:17:59.752Z,101395.48
2023-01-21T21:20:34.655Z,101397.86
2023-01-21T21:23:03.413Z,101399.78
2023-01-21T21:25:36.681Z,101401.86
2023-01-21T21:28:04.573Z,101410.94
2023-01-21T21:30:34.217Z,101413.54
2023-01-21T21:33:03.148Z,101417.91
2023-01-21T21:35:39.318Z,101416.48
2023-01-21T21:38:13.275Z,101417.89
2023-01-21T21:40:47.630Z,101426.76
2023-01-21T21:43:33.272Z,101424.35
2023-01-21T21:46:26.677Z,101424.05
2023-01-21T21:49:20.094Z,101437.75
2023-01-21T21:52:02.291Z,101435.30
2023-01-21T21:54:30.019Z,101437.21
2023-01-21T21:56:57.184Z,101440.54
2023-01-21T21:59:24.273Z,101444.04
2023-01-21T22:01:51.250Z,101443.35
2023-01-21T22:04:17.999Z,101447.89
2023-01-21T22:06:44.519Z,101449.98
2023-01-21T22:09:12.827Z,101452.08
2023-01-21T22:11:39.498Z,101458.00
2023-01-21T22:14:06.298Z,101459.75
2023-01-21T22:16:35.370Z,101466.56
2023-01-21T22:19:02.183Z,101470.59
2023-01-21T22:21:32.253Z,101475.13
2023-01-21T22:24:05.095Z,101478.11
2023-01-21T22:26:34.761Z,101480.77
2023-01-21T22:29:02.333Z,101483.04
2023-01-21T22:31:31.685Z,101482.70
2023-01-21T22:33:59.584Z,101480.98
2023-01-21T22:36:29.173Z,101484.46
2023-01-21T22:38:56.071Z,101481.66
2023-01-21T22:41:24.371Z,101482.55
2023-01-21T22:43:52.374Z,101491.77
2023-01-21T22:46:25.024Z,101495.41
2023-01-21T22:48:55.692Z,101466.54
2023-01-21T22:51:22.992Z,101490.52
2023-01-21T22:53:51.518Z,101493.14
2023-01-21T22:56:23.392Z,101495.75
2023-01-21T22:58:50.286Z,101499.92
2023-01-21T23:01:31.715Z,101501.49
2023-01-21T23:03:59.547Z,101504.83
2023-01-21T23:06:26.539Z,101511.27
2023-01-21T23:08:53.451Z,101509.34
2023-01-21T23:11:21.015Z,101511.27
2023-01-21T23:13:53.124Z,101508.66
